Time;durP1;ratioP1;P1;durP2;ratioP2;P2;SDS_P1;SDS_P2;PMS_P1;PMS_P2;Temp;Humidity;BMP_temperature;BMP_pressure;BME280_temperature;BME280_humidity;BME280_pressure;Samples;Min_cycle;Max_cycle;Signal;HPM_P1;HPM_P2
2023/10/08 00:02:26;;;;;;;12.57;12.13;;;12.80;99.90;;;;;;5103308;28;20314;-70
2023/10/08 00:04:54;;;;;;;13.00;12.50;;;12.70;99.90;;;;;;5102631;28;20578;-69
2023/10/08 00:07:21;;;;;;;13.30;12.80;;;12.70;99.90;;;;;;5128625;27;20205;-69
2023/10/08 00:09:52;;;;;;;13.18;12.68;;;12.70;99.90;;;;;;5126162;27;20214;-71
2023/10/08 00:12:20;;;;;;;12.43;12.03;;;12.70;99.90;;;;;;5102239;28;20719;-70
2023/10/08 00:14:49;;;;;;;12.43;12.03;;;12.70;99.90;;;;;;5123518;27;20755;-70
2023/10/08 00:17:17;;;;;;;12.50;12.10;;;12.70;99.90;;;;;;5125078;27;20279;-69
2023/10/08 00:19:44;;;;;;;12.03;11.63;;;12.70;99.90;;;;;;5115792;27;20579;-71
2023/10/08 00:22:13;;;;;;;12.03;11.53;;;12.70;99.90;;;;;;5124383;27;20617;-70
2023/10/08 00:24:41;;;;;;;12.77;12.27;;;12.70;99.90;;;;;;5115255;27;20694;-69
2023/10/08 00:27:14;;;;;;;13.18;12.68;;;12.70;99.90;;;;;;5107738;28;20209;-70
2023/10/08 00:29:43;;;;;;;12.83;12.43;;;12.70;99.90;;;;;;5107039;28;20233;-70
2023/10/08 00:32:13;;;;;;;12.30;11.90;;;12.60;99.90;;;;;;5114020;28;20236;-70
2023/10/08 00:34:43;;;;;;;12.48;11.98;;;12.60;99.90;;;;;;5121627;27;20210;-70
2023/10/08 00:37:13;;;;;;;12.57;12.18;;;12.60;99.90;;;;;;5119114;27;20194;-69
2023/10/08 00:39:41;;;;;;;12.98;12.40;;;12.60;99.90;;;;;;5111736;27;20271;-71
2023/10/08 00:42:09;;;;;;;12.45;12.05;;;12.60;99.90;;;;;;5114767;28;20226;-69
2023/10/08 00:44:47;;;;;;;12.10;11.70;;;12.60;99.90;;;;;;5121746;28;20310;-69
2023/10/08 00:47:15;;;;;;;12.48;12.07;;;12.70;99.90;;;;;;5101358;28;20205;-70
2023/10/08 00:50:03;;;;;;;12.90;12.40;;;12.60;99.90;;;;;;5108656;28;20205;-69
2023/10/08 00:52:30;;;;;;;12.48;12.07;;;12.60;99.90;;;;;;5117306;28;20316;-70
2023/10/08 00:55:09;;;;;;;13.63;13.13;;;12.60;99.90;;;;;;5113140;28;20221;-69
2023/10/08 00:57:42;;;;;;;12.82;12.35;;;12.60;99.90;;;;;;5102994;28;20198;-69
2023/10/08 01:00:17;;;;;;;12.77;12.38;;;12.60;99.90;;;;;;5120282;28;20212;-70
2023/10/08 01:02:49;;;;;;;13.20;12.70;;;12.50;99.90;;;;;;5099974;28;20295;-69
2023/10/08 01:05:19;;;;;;;12.68;12.23;;;12.50;99.90;;;;;;5091487;28;20186;-72
2023/10/08 01:07:51;;;;;;;12.48;12.07;;;12.60;99.90;;;;;;5107900;28;20209;-69
2023/10/08 01:10:20;;;;;;;13.07;12.57;;;12.50;99.90;;;;;;5115924;27;20219;-69
2023/10/08 01:13:04;;;;;;;13.18;12.68;;;12.50;99.90;;;;;;5113908;27;20229;-68
2023/10/08 01:15:35;;;;;;;14.25;13.75;;;12.50;99.90;;;;;;5106670;28;20206;-70
2023/10/08 01:18:04;;;;;;;12.45;12.05;;;12.50;99.90;;;;;;5107078;28;20252;-69
2023/10/08 01:20:34;;;;;;;13.30;12.80;;;12.50;99.90;;;;;;5119911;27;20210;-69
2023/10/08 01:23:08;;;;;;;13.67;13.17;;;12.40;99.90;;;;;;5110950;27;20226;-68
2023/10/08 01:25:35;;;;;;;12.50;12.10;;;12.50;99.90;;;;;;5125038;27;20660;-70
2023/10/08 01:28:08;;;;;;;12.88;12.43;;;12.50;99.90;;;;;;5114523;27;20222;-70
2023/10/08 01:30:41;;;;;;;13.43;12.93;;;12.50;99.90;;;;;;5114185;28;20252;-69
2023/10/08 01:33:11;;;;;;;13.38;12.88;;;12.50;99.90;;;;;;5107309;28;20309;-70
2023/10/08 01:35:38;;;;;;;12.57;12.18;;;12.50;99.90;;;;;;5111678;28;20210;-70
2023/10/08 01:38:08;;;;;;;13.00;12.50;;;12.50;99.90;;;;;;5114248;28;20684;-70
2023/10/08 01:40:38;;;;;;;13.25;12.75;;;12.50;99.90;;;;;;5114973;28;20248;-71
2023/10/08 01:43:05;;;;;;;12.73;12.32;;;12.40;99.90;;;;;;5107738;28;20655;-70
2023/10/08 01:45:32;;;;;;;13.18;12.68;;;12.40;99.90;;;;;;5114482;28;20292;-70
2023/10/08 01:47:59;;;;;;;13.33;12.83;;;12.40;99.90;;;;;;5100691;28;20677;-70
2023/10/08 01:50:29;;;;;;;13.40;12.90;;;12.40;99.90;;;;;;5112567;28;20210;-69
2023/10/08 01:52:56;;;;;;;13.37;12.87;;;12.40;99.90;;;;;;5110489;28;20336;-70
2023/10/08 01:55:24;;;;;;;13.15;12.65;;;12.40;99.90;;;;;;5116018;28;20675;-71
2023/10/08 01:57:52;;;;;;;12.83;12.33;;;12.50;99.90;;;;;;5108744;28;20209;-69
2023/10/08 02:00:19;;;;;;;12.27;11.88;;;12.50;99.90;;;;;;5115215;28;20206;-70
2023/10/08 02:02:47;;;;;;;12.90;12.45;;;12.50;99.90;;;;;;5113520;28;20234;-69
2023/10/08 02:05:15;;;;;;;12.70;12.20;;;12.50;99.90;;;;;;5097965;28;20293;-68
2023/10/08 02:07:44;;;;;;;13.32;12.82;;;12.50;99.90;;;;;;5112132;28;20842;-70
2023/10/08 02:10:11;;;;;;;12.73;12.32;;;12.50;99.90;;;;;;5114268;28;20217;-70
2023/10/08 02:12:39;;;;;;;13.17;12.67;;;12.50;99.90;;;;;;5109536;28;20291;-70
2023/10/08 02:15:07;;;;;;;12.70;12.20;;;12.50;99.90;;;;;;5104410;28;20198;-70
2023/10/08 02:17:34;;;;;;;13.00;12.50;;;12.50;99.90;;;;;;5103313;28;20216;-68
2023/10/08 02:20:04;;;;;;;13.37;12.87;;;12.50;99.90;;;;;;5105593;28;20312;-70
2023/10/08 02:22:32;;;;;;;12.60;12.20;;;12.40;99.90;;;;;;5104905;28;20582;-69
2023/10/08 02:25:01;;;;;;;12.48;11.98;;;12.50;99.90;;;;;;5111255;28;20209;-69
2023/10/08 02:27:28;;;;;;;12.87;12.37;;;12.40;99.90;;;;;;5113872;28;20206;-69
2023/10/08 02:29:56;;;;;;;11.75;11.35;;;12.40;99.90;;;;;;5108582;28;20232;-70
2023/10/08 02:32:23;;;;;;;12.30;11.90;;;12.30;99.90;;;;;;5103657;28;20233;-68
2023/10/08 02:34:51;;;;;;;12.18;11.77;;;12.40;99.90;;;;;;5107315;28;20210;-70
2023/10/08 02:37:19;;;;;;;13.23;12.73;;;12.40;99.90;;;;;;5104920;28;20573;-71
2023/10/08 02:39:46;;;;;;;13.07;12.60;;;12.30;99.90;;;;;;5117575;28;20224;-70
2023/10/08 02:42:14;;;;;;;13.27;12.77;;;12.40;99.90;;;;;;5123230;28;20234;-69
2023/10/08 02:44:41;;;;;;;13.73;13.23;;;12.30;99.90;;;;;;5123554;28;20241;-70
2023/10/08 02:47:11;;;;;;;13.45;12.90;;;12.30;99.90;;;;;;5131184;28;20202;-69
2023/10/08 02:49:40;;;;;;;13.60;13.10;;;12.20;99.90;;;;;;5122924;28;20197;-69
2023/10/08 02:52:08;;;;;;;13.65;13.15;;;12.30;99.90;;;;;;5119767;28;20229;-70
2023/10/08 02:54:37;;;;;;;13.43;12.93;;;12.40;99.90;;;;;;5102887;28;20293;-68
2023/10/08 02:57:09;;;;;;;12.87;12.47;;;12.20;99.90;;;;;;5095796;28;20206;-71
2023/10/08 02:59:40;;;;;;;13.02;12.55;;;12.20;99.90;;;;;;5112837;28;20340;-70
2023/10/08 03:02:13;;;;;;;14.20;13.65;;;12.10;99.90;;;;;;5111535;28;20213;-69
2023/10/08 03:04:45;;;;;;;12.57;12.15;;;12.00;99.90;;;;;;5110341;28;20203;-69
2023/10/08 03:07:21;;;;;;;11.85;11.40;;;12.00;99.90;;;;;;5111686;28;20238;-69
2023/10/08 03:09:49;;;;;;;12.55;12.15;;;11.90;99.90;;;;;;5112263;28;20214;-68
2023/10/08 03:12:17;;;;;;;12.80;12.37;;;11.90;99.90;;;;;;5098452;28;20236;-71
2023/10/08 03:15:00;;;;;;;12.67;12.17;;;11.90;99.90;;;;;;5109070;28;20211;-68
2023/10/08 03:17:28;;;;;;;12.17;11.77;;;11.80;99.90;;;;;;5111759;28;20259;-68
2023/10/08 03:20:25;;;;;;;12.82;12.32;;;11.80;99.90;;;;;;5110418;28;20274;-69
2023/10/08 03:22:46;;;;;;;12.02;11.63;;;11.80;99.90;;;;;;5116492;28;20221;-70
2023/10/08 03:25:16;;;;;;;12.32;11.93;;;11.80;99.90;;;;;;5116610;28;20207;-70
2023/10/08 03:27:43;;;;;;;12.15;11.75;;;11.80;99.90;;;;;;5116121;28;20229;-69
2023/10/08 03:30:14;;;;;;;12.45;11.95;;;11.80;99.90;;;;;;5124835;28;20430;-69
2023/10/08 03:32:42;;;;;;;12.23;11.82;;;11.80;99.90;;;;;;5112317;28;20286;-69
2023/10/08 03:35:11;;;;;;;12.10;11.70;;;11.80;99.90;;;;;;5120401;28;20221;-69
2023/10/08 03:37:46;;;;;;;11.75;11.35;;;11.70;99.90;;;;;;5122582;27;20586;-70
2023/10/08 03:40:25;;;;;;;11.50;11.10;;;11.70;99.90;;;;;;5112435;27;20288;-71
2023/10/08 03:42:55;;;;;;;11.35;10.95;;;11.70;99.90;;;;;;5102227;28;20340;-71
2023/10/08 03:48:08;;;;;;;11.65;11.23;;;11.80;99.90;;;;;;5107619;28;20207;-69
2023/10/08 03:50:43;;;;;;;11.82;11.43;;;11.80;99.90;;;;;;5119414;27;21413;-70
2023/10/08 03:53:11;;;;;;;11.90;11.50;;;11.80;99.90;;;;;;5110879;28;20225;-70
2023/10/08 03:55:40;;;;;;;12.85;12.35;;;11.80;99.90;;;;;;5107313;28;20270;-70
2023/10/08 03:58:11;;;;;;;11.70;11.30;;;11.80;99.90;;;;;;5104856;27;20675;-70
2023/10/08 04:00:41;;;;;;;12.25;11.77;;;11.90;99.90;;;;;;5125920;27;20201;-69
2023/10/08 04:03:11;;;;;;;12.38;11.93;;;11.90;99.90;;;;;;5119965;27;20221;-69
2023/10/08 04:05:59;;;;;;;11.60;11.20;;;12.00;99.90;;;;;;5111172;28;20669;-68
2023/10/08 04:08:42;;;;;;;11.90;11.50;;;11.90;99.90;;;;;;5103992;28;20214;-70
2023/10/08 04:11:22;;;;;;;12.57;12.07;;;11.90;99.90;;;;;;5118729;27;20205;-69
2023/10/08 04:13:51;;;;;;;12.40;12.00;;;12.00;99.90;;;;;;5102405;27;20244;-69
2023/10/08 04:16:20;;;;;;;12.07;11.68;;;11.90;99.90;;;;;;5132843;27;20208;-68
2023/10/08 04:18:50;;;;;;;12.63;12.23;;;11.80;99.90;;;;;;5116686;27;20256;-69
2023/10/08 04:21:20;;;;;;;11.97;11.57;;;11.80;99.90;;;;;;5133443;27;20220;-70
2023/10/08 04:23:51;;;;;;;12.07;11.68;;;11.90;99.90;;;;;;5120894;27;20621;-69
2023/10/08 04:26:23;;;;;;;11.90;11.50;;;11.90;99.90;;;;;;5112524;27;20209;-69
2023/10/08 04:28:54;;;;;;;12.02;11.63;;;11.90;99.90;;;;;;5132074;27;20683;-70
2023/10/08 04:31:24;;;;;;;11.63;11.23;;;11.90;99.90;;;;;;5114527;27;20297;-68
2023/10/08 04:33:52;;;;;;;12.57;12.13;;;11.90;99.90;;;;;;5103644;28;20290;-69
2023/10/08 04:36:20;;;;;;;11.98;11.57;;;11.90;99.90;;;;;;5116303;27;20213;-68
2023/10/08 04:38:48;;;;;;;12.00;11.60;;;11.90;99.90;;;;;;5120283;27;20244;-67
2023/10/08 04:41:19;;;;;;;11.75;11.35;;;12.00;99.90;;;;;;5119903;28;20267;-70
2023/10/08 04:43:49;;;;;;;11.30;10.90;;;12.00;99.90;;;;;;5115240;28;20250;-70
2023/10/08 04:46:33;;;;;;;12.23;11.82;;;12.00;99.90;;;;;;5107619;28;20240;-69
2023/10/08 04:49:05;;;;;;;12.38;11.93;;;12.00;99.90;;;;;;5124916;28;20209;-70
2023/10/08 04:51:40;;;;;;;12.43;11.93;;;12.00;99.90;;;;;;5112488;28;20850;-68
2023/10/08 04:54:06;;;;;;;12.18;11.77;;;12.00;99.90;;;;;;5121279;28;20220;-70
2023/10/08 04:56:33;;;;;;;12.93;12.50;;;11.90;99.90;;;;;;5114028;28;20284;-68
2023/10/08 04:59:00;;;;;;;12.30;11.80;;;11.90;99.90;;;;;;5125654;28;20293;-70
2023/10/08 05:01:38;;;;;;;12.18;11.77;;;11.90;99.90;;;;;;5128233;28;20206;-69
2023/10/08 05:04:23;;;;;;;11.70;11.30;;;11.90;99.90;;;;;;5098328;28;20309;-68
2023/10/08 05:07:00;;;;;;;12.43;11.93;;;11.90;99.90;;;;;;5118061;28;20201;-69
2023/10/08 05:09:41;;;;;;;12.68;12.25;;;11.90;99.90;;;;;;5115526;28;20320;-71
2023/10/08 05:12:28;;;;;;;12.02;11.63;;;12.00;99.90;;;;;;5126881;28;20292;-70
2023/10/08 05:15:09;;;;;;;12.25;11.85;;;12.00;99.90;;;;;;5112802;28;20213;-70
2023/10/08 05:17:46;;;;;;;12.97;12.47;;;12.10;99.90;;;;;;5112212;28;20660;-69
2023/10/08 05:20:19;;;;;;;11.95;11.55;;;12.10;99.90;;;;;;5123452;28;20305;-71
2023/10/08 05:22:55;;;;;;;12.82;12.32;;;12.10;99.90;;;;;;5123253;28;20225;-68
2023/10/08 05:25:35;;;;;;;13.07;12.57;;;12.10;99.90;;;;;;5114536;28;20266;-71
2023/10/08 05:28:09;;;;;;;12.23;11.82;;;12.10;99.90;;;;;;5112704;28;20419;-69
2023/10/08 05:30:41;;;;;;;12.68;12.18;;;12.10;99.90;;;;;;5109105;28;20204;-70
2023/10/08 05:33:25;;;;;;;12.55;12.10;;;12.00;99.90;;;;;;5097750;28;20308;-70
2023/10/08 05:36:02;;;;;;;12.25;11.82;;;11.90;99.90;;;;;;5110461;28;20316;-69
2023/10/08 05:38:48;;;;;;;12.55;12.15;;;11.90;99.90;;;;;;5122090;28;20704;-69
2023/10/08 05:41:28;;;;;;;11.88;11.48;;;11.80;99.90;;;;;;5122894;28;20291;-70
2023/10/08 05:47:12;;;;;;;12.32;11.88;;;11.90;99.90;;;;;;5113686;28;20201;-70
2023/10/08 05:49:42;;;;;;;12.15;11.75;;;11.90;99.90;;;;;;5120397;28;20206;-71
2023/10/08 05:52:27;;;;;;;12.07;11.68;;;11.90;99.90;;;;;;5119556;27;20218;-68
2023/10/08 05:55:14;;;;;;;12.55;12.05;;;11.90;99.90;;;;;;5108350;27;20213;-70
2023/10/08 05:57:46;;;;;;;12.40;11.80;;;11.80;99.90;;;;;;5123059;27;20201;-69
2023/10/08 06:03:11;;;;;;;11.70;11.30;;;11.90;99.90;;;;;;5111192;27;20243;-70
2023/10/08 06:05:47;;;;;;;12.50;12.00;;;11.90;99.90;;;;;;5129758;27;20213;-68
2023/10/08 06:08:14;;;;;;;12.20;11.80;;;11.90;99.90;;;;;;5122784;27;20256;-68
2023/10/08 06:10:44;;;;;;;14.63;14.13;;;12.20;99.90;;;;;;5133041;27;20808;-69
2023/10/08 06:13:16;;;;;;;12.15;11.75;;;12.10;99.90;;;;;;5125743;27;20233;-70
2023/10/08 06:15:48;;;;;;;13.00;12.50;;;12.20;99.90;;;;;;5126449;27;20209;-71
2023/10/08 06:18:14;;;;;;;12.37;11.97;;;12.30;99.90;;;;;;5130012;27;21017;-69
2023/10/08 06:20:43;;;;;;;13.70;13.20;;;12.30;99.90;;;;;;5127110;27;20281;-69
2023/10/08 06:23:12;;;;;;;13.32;12.82;;;12.40;99.90;;;;;;5114693;27;20229;-69
2023/10/08 06:25:45;;;;;;;13.85;13.35;;;12.40;99.90;;;;;;5126275;27;20205;-69
2023/10/08 06:28:18;;;;;;;13.57;13.07;;;12.60;99.90;;;;;;5135515;27;20204;-69
2023/10/08 06:30:45;;;;;;;13.70;13.20;;;12.40;99.90;;;;;;5135320;27;20205;-69
2023/10/08 06:33:13;;;;;;;13.90;13.40;;;12.40;99.90;;;;;;5129070;27;20461;-71
2023/10/08 06:35:44;;;;;;;14.47;13.97;;;12.50;99.90;;;;;;5122821;27;20838;-68
2023/10/08 06:38:14;;;;;;;14.43;13.93;;;12.40;99.90;;;;;;5130654;27;20210;-68
2023/10/08 06:40:42;;;;;;;14.57;14.05;;;12.40;99.90;;;;;;5127986;27;20213;-68
2023/10/08 06:43:21;;;;;;;14.45;13.95;;;12.50;99.90;;;;;;5133996;27;20217;-69
2023/10/08 06:45:53;;;;;;;14.35;13.85;;;12.50;99.90;;;;;;5138114;27;20229;-71
2023/10/08 06:48:21;;;;;;;14.15;13.65;;;12.60;99.90;;;;;;5137371;27;20210;-69
2023/10/08 06:50:49;;;;;;;14.00;13.50;;;12.60;99.90;;;;;;5122529;27;20212;-69
2023/10/08 06:53:17;;;;;;;12.90;12.40;;;12.70;99.90;;;;;;5108054;27;20353;-69
2023/10/08 06:55:47;;;;;;;13.73;13.23;;;12.70;99.90;;;;;;5133365;27;20292;-69
2023/10/08 06:58:15;;;;;;;12.90;12.50;;;12.80;99.90;;;;;;5136135;27;20198;-68
2023/10/08 07:00:47;;;;;;;13.48;12.98;;;12.90;99.90;;;;;;5130716;27;20219;-67
2023/10/08 07:03:17;;;;;;;12.97;12.47;;;13.00;99.90;;;;;;5127026;27;20237;-68
2023/10/08 07:05:53;;;;;;;13.27;12.77;;;13.00;99.90;;;;;;5117036;27;20205;-70
2023/10/08 07:08:23;;;;;;;12.75;12.25;;;13.00;99.90;;;;;;5126175;27;20200;-69
2023/10/08 07:10:50;;;;;;;12.48;12.07;;;13.10;99.90;;;;;;5127565;27;20211;-69
2023/10/08 07:13:19;;;;;;;12.60;12.20;;;13.20;99.90;;;;;;5126629;27;20260;-69
2023/10/08 07:15:46;;;;;;;12.20;11.80;;;13.30;99.90;;;;;;5122451;27;20588;-68
2023/10/08 07:18:21;;;;;;;12.18;11.68;;;13.30;99.90;;;;;;5125902;27;20214;-69
2023/10/08 07:20:53;;;;;;;11.95;11.55;;;13.40;99.90;;;;;;5115870;27;20659;-68
2023/10/08 07:23:24;;;;;;;12.23;11.73;;;13.50;99.90;;;;;;5114749;27;20633;-70
2023/10/08 07:25:58;;;;;;;12.25;11.75;;;13.50;99.90;;;;;;5106794;28;20208;-68
2023/10/08 07:28:26;;;;;;;12.20;11.80;;;13.50;99.90;;;;;;5119817;27;20669;-69
2023/10/08 07:30:54;;;;;;;13.10;12.60;;;13.50;99.90;;;;;;5105209;27;20215;-69
2023/10/08 07:33:24;;;;;;;11.68;11.27;;;13.50;99.90;;;;;;5113038;27;20233;-68
2023/10/08 07:35:56;;;;;;;11.45;11.05;;;13.60;99.90;;;;;;5117159;27;20277;-69
2023/10/08 07:38:28;;;;;;;11.90;11.50;;;13.60;99.90;;;;;;5134847;27;20223;-69
2023/10/08 07:40:57;;;;;;;11.88;11.48;;;13.70;99.90;;;;;;5129105;27;20210;-67
2023/10/08 07:43:24;;;;;;;12.00;11.60;;;13.70;99.90;;;;;;5127644;27;20225;-69
2023/10/08 07:45:53;;;;;;;13.43;12.93;;;13.90;99.90;;;;;;5128758;27;20266;-69
2023/10/08 07:48:29;;;;;;;11.27;10.88;;;13.70;99.90;;;;;;5141626;27;20209;-69
2023/10/08 07:50:56;;;;;;;12.20;11.70;;;13.70;99.90;;;;;;5126420;27;20213;-70
2023/10/08 07:53:24;;;;;;;12.10;11.60;;;13.70;99.90;;;;;;5133960;27;20730;-70
2023/10/08 07:55:51;;;;;;;11.75;11.35;;;13.60;99.90;;;;;;5134823;27;20299;-69
2023/10/08 07:58:19;;;;;;;11.82;11.32;;;13.60;99.90;;;;;;5131456;27;20708;-70
2023/10/08 08:00:55;;;;;;;11.70;11.30;;;13.70;99.90;;;;;;5116961;27;20264;-69
2023/10/08 08:03:24;;;;;;;11.48;11.00;;;13.80;99.90;;;;;;5124629;27;20270;-67
2023/10/08 08:05:52;;;;;;;11.05;10.65;;;13.90;99.90;;;;;;5111683;27;20209;-69
2023/10/08 08:08:27;;;;;;;11.57;11.17;;;14.00;99.90;;;;;;5130262;27;20300;-69
2023/10/08 08:10:57;;;;;;;11.68;11.07;;;14.10;99.90;;;;;;5123521;27;20213;-69
2023/10/08 08:13:27;;;;;;;11.63;11.23;;;14.20;99.90;;;;;;5117406;27;20246;-68
2023/10/08 08:15:58;;;;;;;11.40;11.00;;;14.30;99.90;;;;;;5104988;28;20737;-68
2023/10/08 08:18:32;;;;;;;11.30;10.90;;;14.40;99.90;;;;;;5121292;27;20213;-68
2023/10/08 08:21:02;;;;;;;11.03;10.63;;;14.50;99.90;;;;;;5116056;27;20204;-68
2023/10/08 08:23:32;;;;;;;11.65;11.25;;;14.60;99.90;;;;;;5118500;27;20251;-69
2023/10/08 08:26:11;;;;;;;11.77;11.38;;;14.60;99.90;;;;;;5113481;27;20279;-69
2023/10/08 08:28:39;;;;;;;11.93;11.52;;;14.60;99.90;;;;;;5102463;28;20202;-69
2023/10/08 08:31:13;;;;;;;11.85;11.45;;;14.60;99.90;;;;;;5109869;28;20234;-69
2023/10/08 08:33:56;;;;;;;12.23;11.82;;;14.80;99.90;;;;;;5108741;27;20229;-68
2023/10/08 08:36:24;;;;;;;12.53;12.03;;;15.10;99.90;;;;;;5113518;28;20292;-69
2023/10/08 08:38:51;;;;;;;12.48;12.07;;;15.50;99.90;;;;;;5105362;28;20297;-68
2023/10/08 08:41:19;;;;;;;12.25;11.85;;;15.80;99.90;;;;;;5119593;27;20296;-68
2023/10/08 08:43:49;;;;;;;12.32;11.93;;;16.10;99.90;;;;;;5117513;27;20229;-68
2023/10/08 08:46:18;;;;;;;12.45;11.95;;;16.40;99.90;;;;;;5109983;28;20288;-68
2023/10/08 08:48:48;;;;;;;12.30;11.90;;;16.70;99.90;;;;;;5127107;28;20304;-69
2023/10/08 08:51:15;;;;;;;12.82;12.38;;;17.10;99.90;;;;;;5116127;28;20212;-69
2023/10/08 08:53:42;;;;;;;13.20;12.70;;;17.30;99.90;;;;;;5125258;28;20230;-70
2023/10/08 08:56:10;;;;;;;12.82;12.40;;;17.70;99.90;;;;;;5123774;28;20239;-68
2023/10/08 08:58:38;;;;;;;12.43;12.00;;;17.90;99.90;;;;;;5123407;28;20228;-69
2023/10/08 09:01:12;;;;;;;12.23;11.73;;;18.20;99.90;;;;;;5125698;28;20259;-69
2023/10/08 09:03:39;;;;;;;12.75;12.32;;;18.40;99.90;;;;;;5120339;28;20226;-69
2023/10/08 09:06:07;;;;;;;12.55;12.15;;;18.60;99.90;;;;;;5127714;28;20288;-69
2023/10/08 09:08:35;;;;;;;12.48;12.07;;;18.70;99.90;;;;;;5116297;28;20212;-68
2023/10/08 09:11:04;;;;;;;12.85;12.45;;;18.80;99.90;;;;;;5119583;28;20256;-69
2023/10/08 09:13:32;;;;;;;13.20;12.70;;;18.90;99.90;;;;;;5121434;28;20236;-69
2023/10/08 09:16:07;;;;;;;13.20;12.70;;;19.00;99.90;;;;;;5114198;28;20201;-68
2023/10/08 09:18:34;;;;;;;13.23;12.77;;;19.00;99.90;;;;;;5129760;28;20257;-69
2023/10/08 09:21:18;;;;;;;12.63;12.23;;;19.20;99.90;;;;;;5124620;28;20293;-68
2023/10/08 09:23:50;;;;;;;13.60;13.10;;;19.40;99.90;;;;;;5123624;28;20320;-69
2023/10/08 09:26:19;;;;;;;13.95;13.45;;;19.60;99.90;;;;;;5126235;28;20645;-69
2023/10/08 09:28:46;;;;;;;13.38;12.88;;;19.80;99.90;;;;;;5131487;27;20232;-70
2023/10/08 09:31:14;;;;;;;14.00;13.50;;;19.90;99.90;;;;;;5138628;27;20231;-69
2023/10/08 09:33:41;;;;;;;15.27;14.77;;;20.00;99.90;;;;;;5123878;27;20225;-68
2023/10/08 09:36:18;;;;;;;15.10;14.60;;;20.00;99.90;;;;;;5128631;27;20288;-69
2023/10/08 09:38:48;;;;;;;15.15;14.65;;;20.30;99.90;;;;;;5130945;27;20209;-69
2023/10/08 09:41:16;;;;;;;14.68;14.18;;;20.30;99.90;;;;;;5142718;27;20200;-69
2023/10/08 09:43:45;;;;;;;15.02;14.52;;;20.30;99.90;;;;;;5136889;27;20224;-70
2023/10/08 09:46:19;;;;;;;15.02;14.52;;;20.40;99.90;;;;;;5150116;27;20374;-70
2023/10/08 09:48:52;;;;;;;15.25;14.75;;;20.50;99.90;;;;;;5146772;27;20201;-71
2023/10/08 09:51:20;;;;;;;16.38;15.77;;;20.60;99.90;;;;;;5144657;27;20205;-68
2023/10/08 09:54:01;;;;;;;15.80;15.20;;;20.80;99.90;;;;;;5134454;27;20237;-70
2023/10/08 09:56:31;;;;;;;14.02;13.52;;;20.90;99.90;;;;;;5136568;27;20235;-70
2023/10/08 09:58:59;;;;;;;13.75;13.25;;;20.80;99.90;;;;;;5129980;27;20238;-69
2023/10/08 10:01:27;;;;;;;14.05;13.55;;;20.90;99.90;;;;;;5135809;27;20217;-69
2023/10/08 10:03:54;;;;;;;13.90;13.40;;;21.10;99.90;;;;;;5136954;27;20315;-69
2023/10/08 10:06:22;;;;;;;14.55;14.05;;;21.30;99.90;;;;;;5136751;27;20715;-69
2023/10/08 10:08:49;;;;;;;14.05;13.55;;;21.50;99.90;;;;;;5135898;27;20209;-69
2023/10/08 10:11:18;;;;;;;12.75;12.35;;;21.70;99.90;;;;;;5137086;27;20209;-69
2023/10/08 10:13:47;;;;;;;13.15;12.65;;;21.80;99.90;;;;;;5136502;27;20310;-69
2023/10/08 10:16:18;;;;;;;13.32;12.85;;;22.00;99.90;;;;;;5134628;27;20682;-69
2023/10/08 10:18:47;;;;;;;13.90;13.40;;;21.90;99.90;;;;;;5136570;27;20198;-69
2023/10/08 10:21:31;;;;;;;14.05;13.55;;;22.10;99.90;;;;;;5137198;27;20202;-70
2023/10/08 10:23:58;;;;;;;13.88;13.38;;;22.20;99.90;;;;;;5125320;27;20308;-69
2023/10/08 10:26:33;;;;;;;13.80;13.30;;;22.30;99.90;;;;;;5139949;27;20281;-70
2023/10/08 10:29:22;;;;;;;13.80;13.30;;;22.50;99.90;;;;;;5143511;27;20209;-70
2023/10/08 10:31:53;;;;;;;13.80;13.30;;;22.60;99.90;;;;;;5141072;27;20212;-70
2023/10/08 10:34:21;;;;;;;14.90;14.40;;;22.70;99.90;;;;;;5116902;27;20247;-69
2023/10/08 10:36:49;;;;;;;16.05;15.45;;;22.80;99.90;;;;;;5117952;27;20277;-70
2023/10/08 10:39:26;;;;;;;16.90;16.30;;;22.80;99.90;;;;;;5116720;27;21449;-71
2023/10/08 10:42:01;;;;;;;17.13;16.52;;;22.80;99.90;;;;;;5118346;27;20193;-70
2023/10/08 10:44:29;;;;;;;16.55;15.95;;;22.90;99.90;;;;;;5114549;27;20208;-69
2023/10/08 10:47:25;;;;;;;18.58;17.88;;;22.90;99.90;;;;;;5124386;27;20288;-70
2023/10/08 10:49:52;;;;;;;16.25;15.68;;;23.00;99.90;;;;;;5120690;27;20198;-70
2023/10/08 10:52:31;;;;;;;17.02;16.42;;;23.20;99.90;;;;;;5119359;27;20218;-70
2023/10/08 10:55:17;;;;;;;18.13;17.52;;;23.30;99.90;;;;;;5117904;27;20228;-69
2023/10/08 10:57:55;;;;;;;18.00;17.40;;;23.40;99.90;;;;;;5116425;27;20266;-70
2023/10/08 11:03:15;;;;;;;16.98;16.38;;;23.50;99.90;;;;;;5113783;27;20313;-71
2023/10/08 11:05:48;;;;;;;18.23;17.58;;;23.60;99.90;;;;;;5115179;27;20442;-69
2023/10/08 11:08:18;;;;;;;19.75;19.05;;;23.70;99.90;;;;;;5118713;27;20205;-69
2023/10/08 11:10:49;;;;;;;17.85;17.15;;;23.70;99.90;;;;;;5118653;27;20210;-69
2023/10/08 11:13:20;;;;;;;16.75;16.15;;;23.80;99.90;;;;;;5122149;27;20218;-69
2023/10/08 11:15:49;;;;;;;16.95;16.35;;;23.90;99.90;;;;;;5122689;27;20254;-69
2023/10/08 11:18:17;;;;;;;17.00;16.40;;;24.00;99.90;;;;;;5121748;27;20200;-70
2023/10/08 11:20:45;;;;;;;16.98;16.38;;;24.00;99.90;;;;;;5127477;27;20266;-70
2023/10/08 11:23:18;;;;;;;16.30;15.68;;;24.10;99.90;;;;;;5130110;27;20225;-70
2023/10/08 11:25:54;;;;;;;17.40;16.80;;;24.20;99.90;;;;;;5130075;27;20190;-70
2023/10/08 11:28:27;;;;;;;17.80;17.20;;;24.10;99.90;;;;;;5133348;27;20206;-68
2023/10/08 11:30:54;;;;;;;17.27;16.67;;;24.20;99.90;;;;;;5120256;27;20208;-68
2023/10/08 11:33:21;;;;;;;17.35;16.75;;;24.10;99.90;;;;;;5119373;27;20261;-69
2023/10/08 11:36:02;;;;;;;17.10;16.50;;;24.10;99.90;;;;;;5114748;27;20309;-68
2023/10/08 11:38:39;;;;;;;18.10;17.50;;;24.20;99.90;;;;;;5116082;27;20579;-68
2023/10/08 11:41:20;;;;;;;16.85;16.25;;;24.30;99.90;;;;;;5115446;27;20201;-68
2023/10/08 11:43:53;;;;;;;16.67;16.08;;;24.40;99.90;;;;;;5116891;27;20771;-68
2023/10/08 11:46:21;;;;;;;16.23;15.63;;;24.50;99.90;;;;;;5111700;27;20198;-67
2023/10/08 11:48:50;;;;;;;16.45;15.85;;;24.40;99.90;;;;;;5116781;27;20656;-69
2023/10/08 11:51:17;;;;;;;17.95;17.30;;;24.40;99.90;;;;;;5115818;27;20217;-68
2023/10/08 11:53:45;;;;;;;16.63;15.93;;;24.50;99.90;;;;;;5116764;27;20223;-68
2023/10/08 11:56:13;;;;;;;16.10;15.55;;;24.50;99.90;;;;;;5119169;27;20202;-72
2023/10/08 11:58:44;;;;;;;15.93;15.32;;;24.60;99.90;;;;;;5118372;27;20214;-69
2023/10/08 12:01:15;;;;;;;16.25;15.65;;;24.60;99.90;;;;;;5115267;27;20202;-67
2023/10/08 12:03:44;;;;;;;17.17;16.58;;;24.50;99.90;;;;;;5120365;27;20229;-69
2023/10/08 12:06:15;;;;;;;16.85;16.15;;;24.80;99.90;;;;;;5116934;27;20368;-68
2023/10/08 12:08:46;;;;;;;16.00;15.40;;;24.80;99.90;;;;;;5115618;27;20288;-69
2023/10/08 12:11:16;;;;;;;15.30;14.70;;;24.90;99.90;;;;;;5100659;28;20202;-69
2023/10/08 12:13:47;;;;;;;16.17;15.57;;;24.90;99.90;;;;;;5115899;27;20317;-70
2023/10/08 12:16:26;;;;;;;15.23;14.70;;;24.90;99.90;;;;;;5111553;27;20206;-69
2023/10/08 12:18:58;;;;;;;16.70;16.10;;;24.90;99.90;;;;;;5110768;27;20237;-70
2023/10/08 12:21:25;;;;;;;16.08;15.48;;;25.00;99.90;;;;;;5115560;27;20220;-69
2023/10/08 12:23:54;;;;;;;17.55;16.95;;;25.20;99.90;;;;;;5119701;27;20236;-70
2023/10/08 12:26:21;;;;;;;17.35;16.75;;;25.20;99.90;;;;;;5122477;27;20194;-69
2023/10/08 12:28:49;;;;;;;16.13;15.52;;;25.20;99.90;;;;;;5126079;27;20218;-71
2023/10/08 12:31:21;;;;;;;16.73;16.13;;;25.20;99.90;;;;;;5124240;27;20205;-70
2023/10/08 12:33:48;;;;;;;16.17;15.57;;;25.30;99.90;;;;;;5122722;27;20221;-68
2023/10/08 12:36:16;;;;;;;15.15;14.65;;;25.30;99.90;;;;;;5120712;27;20225;-70
2023/10/08 12:38:44;;;;;;;16.38;15.77;;;25.40;99.90;;;;;;5113305;27;20228;-69
2023/10/08 12:41:16;;;;;;;15.68;15.07;;;25.40;99.90;;;;;;5121498;27;20636;-70
2023/10/08 12:43:46;;;;;;;15.80;15.20;;;25.40;99.90;;;;;;5124428;27;20229;-71
2023/10/08 12:46:18;;;;;;;16.33;15.73;;;25.40;99.90;;;;;;5123759;27;20197;-70
2023/10/08 12:48:48;;;;;;;16.40;15.68;;;25.50;99.90;;;;;;5123376;28;20211;-68
2023/10/08 12:51:18;;;;;;;15.68;15.07;;;25.50;99.90;;;;;;5129709;28;20211;-71
2023/10/08 12:53:50;;;;;;;16.30;15.70;;;25.40;99.90;;;;;;5125334;28;20217;-69
2023/10/08 12:56:21;;;;;;;15.75;15.15;;;25.50;99.90;;;;;;5124538;28;20220;-69
2023/10/08 12:58:49;;;;;;;16.05;15.45;;;25.50;99.90;;;;;;5126544;28;20659;-68
2023/10/08 13:01:17;;;;;;;15.20;14.60;;;25.40;99.90;;;;;;5128608;27;20220;-63